NJE511E GMMX-LIRQ
Flight info
| Callsign | NJE511E |
|---|---|
| Flight time | N/A |
| Altitude | 38000 |
| Route | OBOGA UG850 BERUM N860 GONZA/N0456F400 N860 BEGOX M445 SOPET M985 BCN N870 DIBER UN870 SOSUR DCT DIVKO UM984 PADKO DCT STP/N0457F410 A3 MIRSA DCT MAREL |
| Aircraft | CL60/M-SBDE1E2E3FGHIJ1J4J5J7M3RWXYZ/LB1V1D1 |
Departure
| Time | 2026-05-05 10:36 |
|---|---|
| Airport | Marrakesh Menara Airport (GMMX) |
Arrival
| Time | N/A |
|---|---|
| Airport | Florence Airport, Peretola (LIRQ) |
| Time | Latitude | Longitude | Altitude | Speed | Heading |
|---|---|---|---|---|---|
| 2026-05-05 10:03 | 31.60296 | -8.02120 | 1564 ft | 0 kts | 187° |
| 2026-05-05 10:29 | 31.60296 | -8.02121 | 1564 ft | 0 kts | 187° |
| 2026-05-05 10:30 | 31.60297 | -8.02120 | 1564 ft | 1 kts | 187° |
| 2026-05-05 10:30 | 31.60311 | -8.02118 | 1563 ft | 2 kts | 187° |
| 2026-05-05 10:30 | 31.60326 | -8.02116 | 1563 ft | 2 kts | 187° |
| 2026-05-05 10:31 | 31.60341 | -8.02114 | 1562 ft | 2 kts | 187° |
| 2026-05-05 10:31 | 31.60356 | -8.02111 | 1562 ft | 2 kts | 187° |
| 2026-05-05 10:31 | 31.60370 | -8.02109 | 1561 ft | 2 kts | 200° |
| 2026-05-05 10:31 | 31.60381 | -8.02097 | 1561 ft | 2 kts | 251° |
| 2026-05-05 10:32 | 31.60382 | -8.02085 | 1561 ft | 0 kts | 276° |
| 2026-05-05 10:32 | 31.60381 | -8.02085 | 1561 ft | 0 kts | 276° |
| 2026-05-05 10:34 | 31.60383 | -8.02104 | 1560 ft | 6 kts | 276° |
| 2026-05-05 10:34 | 31.60395 | -8.02168 | 1560 ft | 9 kts | 316° |
| 2026-05-05 10:34 | 31.60478 | -8.02165 | 1557 ft | 14 kts | 7° |
| 2026-05-05 10:35 | 31.60558 | -8.02178 | 1555 ft | 8 kts | 305° |
| 2026-05-05 10:35 | 31.60571 | -8.02274 | 1555 ft | 31 kts | 276° |
| 2026-05-05 10:35 | 31.60630 | -8.02954 | 1545 ft | 132 kts | 275° |
| 2026-05-05 10:35 | 31.60752 | -8.04268 | 1815 ft | 180 kts | 277° |
| 2026-05-05 10:36 | 31.60898 | -8.05754 | 2650 ft | 195 kts | 277° |
| 2026-05-05 10:36 | 31.61066 | -8.07378 | 3594 ft | 206 kts | 278° |
| 2026-05-05 10:36 | 31.61220 | -8.08992 | 4743 ft | 204 kts | 278° |
| 2026-05-05 10:36 | 31.61388 | -8.10637 | 5767 ft | 209 kts | 278° |
| 2026-05-05 10:37 | 31.61603 | -8.12332 | 6579 ft | 223 kts | 279° |
| 2026-05-05 10:37 | 31.61841 | -8.14239 | 7318 ft | 248 kts | 277° |
| 2026-05-05 10:37 | 31.62083 | -8.16235 | 8487 ft | 253 kts | 281° |
| 2026-05-05 10:37 | 31.62718 | -8.18135 | 9541 ft | 261 kts | 306° |
| 2026-05-05 10:38 | 31.64216 | -8.19326 | 10539 ft | 274 kts | 340° |
| 2026-05-05 10:38 | 31.66136 | -8.19397 | 11632 ft | 290 kts | 9° |
| 2026-05-05 10:38 | 31.67948 | -8.18262 | 12697 ft | 308 kts | 38° |
| 2026-05-05 10:38 | 31.69181 | -8.16174 | 13634 ft | 328 kts | 67° |
| 2026-05-05 10:39 | 31.69525 | -8.13504 | 14441 ft | 342 kts | 92° |
| 2026-05-05 10:39 | 31.69353 | -8.10725 | 15514 ft | 341 kts | 92° |
| 2026-05-05 10:39 | 31.69485 | -8.08005 | 16576 ft | 339 kts | 86° |
| 2026-05-05 10:39 | 31.69743 | -8.05256 | 17622 ft | 337 kts | 82° |
| 2026-05-05 10:40 | 31.70104 | -8.02525 | 18403 ft | 346 kts | 80° |
| 2026-05-05 10:40 | 31.70838 | -7.99826 | 19125 ft | 350 kts | 58° |
| 2026-05-05 10:40 | 31.72262 | -7.97498 | 19877 ft | 352 kts | 45° |
| 2026-05-05 10:40 | 31.73888 | -7.95254 | 20396 ft | 367 kts | 45° |
| 2026-05-05 10:41 | 31.75565 | -7.92925 | 20824 ft | 383 kts | 45° |
| 2026-05-05 10:41 | 31.77283 | -7.90529 | 21458 ft | 391 kts | 45° |
| 2026-05-05 10:41 | 31.79046 | -7.88065 | 22134 ft | 397 kts | 45° |
| 2026-05-05 10:41 | 31.80842 | -7.85554 | 22809 ft | 403 kts | 45° |
| 2026-05-05 10:42 | 31.84529 | -7.80473 | 24233 ft | 412 kts | 43° |
| 2026-05-05 10:42 | 31.86465 | -7.77973 | 24881 ft | 417 kts | 43° |
| 2026-05-05 10:42 | 31.88433 | -7.75431 | 25540 ft | 422 kts | 42° |
| 2026-05-05 10:43 | 31.90415 | -7.72870 | 26111 ft | 428 kts | 43° |
| 2026-05-05 10:43 | 31.92428 | -7.70265 | 26714 ft | 433 kts | 42° |
| 2026-05-05 10:43 | 31.94467 | -7.67625 | 27311 ft | 437 kts | 42° |
| 2026-05-05 10:43 | 31.96518 | -7.64968 | 27842 ft | 443 kts | 42° |
| 2026-05-05 10:44 | 31.98605 | -7.62261 | 28427 ft | 446 kts | 42° |
| 2026-05-05 10:44 | 32.00670 | -7.59581 | 28942 ft | 450 kts | 42° |
| 2026-05-05 10:44 | 32.02800 | -7.56814 | 29430 ft | 455 kts | 42° |
| 2026-05-05 10:44 | 32.04909 | -7.54073 | 29930 ft | 459 kts | 42° |
| 2026-05-05 10:45 | 32.07054 | -7.51282 | 30433 ft | 462 kts | 42° |
| 2026-05-05 10:45 | 32.09213 | -7.48467 | 30903 ft | 465 kts | 42° |
| 2026-05-05 10:45 | 32.11410 | -7.45596 | 31397 ft | 467 kts | 41° |
| 2026-05-05 10:45 | 32.13582 | -7.42753 | 31847 ft | 470 kts | 42° |
| 2026-05-05 10:46 | 32.15778 | -7.39879 | 32268 ft | 473 kts | 41° |
| 2026-05-05 10:46 | 32.17981 | -7.36992 | 32674 ft | 476 kts | 42° |
| 2026-05-05 10:46 | 32.20190 | -7.34095 | 33064 ft | 478 kts | 42° |
| 2026-05-05 10:46 | 32.22432 | -7.31154 | 33403 ft | 481 kts | 43° |
| 2026-05-05 10:47 | 32.24659 | -7.28228 | 33720 ft | 483 kts | 43° |
| 2026-05-05 10:47 | 32.26885 | -7.25304 | 34117 ft | 483 kts | 42° |
| 2026-05-05 10:47 | 32.29137 | -7.22349 | 34538 ft | 483 kts | 42° |
| 2026-05-05 10:47 | 32.31367 | -7.19421 | 34938 ft | 483 kts | 42° |
| 2026-05-05 10:48 | 32.33612 | -7.16470 | 35390 ft | 481 kts | 42° |
| 2026-05-05 10:48 | 32.35837 | -7.13544 | 35813 ft | 480 kts | 42° |
| 2026-05-05 10:48 | 32.38075 | -7.10597 | 36249 ft | 478 kts | 41° |
| 2026-05-05 10:48 | 32.40277 | -7.07696 | 36602 ft | 478 kts | 41° |
| 2026-05-05 10:49 | 32.42509 | -7.04755 | 36917 ft | 478 kts | 41° |
| 2026-05-05 10:49 | 32.44727 | -7.01831 | 37193 ft | 479 kts | 41° |
| 2026-05-05 10:49 | 32.46919 | -6.98937 | 37529 ft | 478 kts | 42° |
| 2026-05-05 10:49 | 32.49140 | -6.96003 | 37805 ft | 478 kts | 41° |
| 2026-05-05 10:50 | 32.51376 | -6.93047 | 38049 ft | 479 kts | 42° |
| 2026-05-05 10:50 | 32.55856 | -6.87125 | 38060 ft | 491 kts | 42° |
| 2026-05-05 10:51 | 32.60476 | -6.81004 | 38054 ft | 503 kts | 42° |
| 2026-05-05 10:51 | 32.65177 | -6.74765 | 38050 ft | 513 kts | 42° |
| 2026-05-05 10:52 | 32.69964 | -6.68398 | 38054 ft | 522 kts | 43° |
| 2026-05-05 10:52 | 32.74833 | -6.61908 | 38058 ft | 529 kts | 43° |
| 2026-05-05 10:53 | 32.79739 | -6.55358 | 38063 ft | 536 kts | 43° |
| 2026-05-05 10:53 | 32.84685 | -6.48742 | 38061 ft | 540 kts | 43° |
| 2026-05-05 10:54 | 32.89661 | -6.42071 | 38073 ft | 540 kts | 43° |
| 2026-05-05 10:54 | 32.94665 | -6.35363 | 38065 ft | 539 kts | 43° |
| 2026-05-05 10:55 | 32.99603 | -6.28749 | 38057 ft | 538 kts | 44° |
| 2026-05-05 10:55 | 33.04556 | -6.22102 | 38057 ft | 537 kts | 43° |
| 2026-05-05 10:56 | 33.09479 | -6.15483 | 38061 ft | 536 kts | 44° |
| 2026-05-05 10:56 | 33.14404 | -6.08849 | 38066 ft | 535 kts | 44° |
| 2026-05-05 10:57 | 33.19342 | -6.02187 | 38067 ft | 534 kts | 44° |
| 2026-05-05 10:57 | 33.24235 | -5.95574 | 38075 ft | 533 kts | 44° |
| 2026-05-05 10:58 | 33.29137 | -5.88935 | 38069 ft | 533 kts | 44° |
| 2026-05-05 10:58 | 33.34011 | -5.82320 | 38065 ft | 532 kts | 44° |
| 2026-05-05 10:59 | 33.38882 | -5.75677 | 38078 ft | 531 kts | 44° |
| 2026-05-05 10:59 | 33.43767 | -5.69004 | 38076 ft | 530 kts | 45° |
| 2026-05-05 11:00 | 33.48585 | -5.62408 | 38076 ft | 529 kts | 44° |
| 2026-05-05 11:00 | 33.53408 | -5.55795 | 38076 ft | 528 kts | 44° |
| 2026-05-05 11:01 | 33.58248 | -5.49146 | 38072 ft | 528 kts | 45° |
| 2026-05-05 11:01 | 33.63027 | -5.42568 | 38222 ft | 525 kts | 44° |
| 2026-05-05 11:01 | 33.65437 | -5.39247 | 38052 ft | 526 kts | 45° |
| 2026-05-05 11:02 | 33.67839 | -5.35932 | 38064 ft | 527 kts | 45° |
| 2026-05-05 11:02 | 33.72636 | -5.29307 | 38073 ft | 528 kts | 45° |
| 2026-05-05 11:03 | 33.77478 | -5.22606 | 38073 ft | 529 kts | 45° |
| 2026-05-05 11:03 | 33.82269 | -5.15961 | 38066 ft | 528 kts | 45° |
| 2026-05-05 11:04 | 33.87072 | -5.09290 | 38064 ft | 528 kts | 45° |
| 2026-05-05 11:04 | 33.91892 | -5.02678 | 38063 ft | 525 kts | 42° |
| 2026-05-05 11:05 | 33.97418 | -4.97098 | 38058 ft | 517 kts | 32° |
| 2026-05-05 11:05 | 34.03141 | -4.91893 | 38052 ft | 516 kts | 32° |
| 2026-05-05 11:06 | 34.08878 | -4.86659 | 38048 ft | 515 kts | 32° |
| 2026-05-05 11:06 | 34.14541 | -4.81483 | 38048 ft | 514 kts | 32° |
| 2026-05-05 11:07 | 34.20243 | -4.76262 | 38038 ft | 515 kts | 32° |
| 2026-05-05 11:07 | 34.25937 | -4.71039 | 38028 ft | 516 kts | 32° |
| 2026-05-05 11:08 | 34.31655 | -4.65783 | 38031 ft | 517 kts | 32° |
| 2026-05-05 11:08 | 34.37382 | -4.60510 | 38034 ft | 517 kts | 32° |
| 2026-05-05 11:09 | 34.43054 | -4.55248 | 38039 ft | 517 kts | 33° |
| 2026-05-05 11:09 | 34.48767 | -4.49920 | 38047 ft | 516 kts | 33° |
| 2026-05-05 11:10 | 34.54425 | -4.44634 | 38052 ft | 516 kts | 33° |
| 2026-05-05 11:10 | 34.60124 | -4.39301 | 38048 ft | 516 kts | 33° |
| 2026-05-05 11:11 | 34.65784 | -4.33993 | 38059 ft | 516 kts | 33° |
| 2026-05-05 11:11 | 34.71444 | -4.28677 | 38058 ft | 515 kts | 33° |
| 2026-05-05 11:12 | 34.77125 | -4.23332 | 38057 ft | 516 kts | 33° |
| 2026-05-05 11:12 | 34.82779 | -4.18003 | 38056 ft | 516 kts | 33° |
| 2026-05-05 11:13 | 34.88433 | -4.12664 | 38057 ft | 515 kts | 34° |
| 2026-05-05 11:13 | 34.94099 | -4.07303 | 38036 ft | 514 kts | 34° |
| 2026-05-05 11:14 | 34.99721 | -4.01975 | 38046 ft | 514 kts | 34° |
| 2026-05-05 11:14 | 35.05356 | -3.96627 | 38041 ft | 515 kts | 34° |
| 2026-05-05 11:15 | 35.10997 | -3.91261 | 38034 ft | 515 kts | 34° |
| 2026-05-05 11:15 | 35.16636 | -3.85888 | 38028 ft | 514 kts | 34° |
| 2026-05-05 11:16 | 35.22275 | -3.80596 | 38018 ft | 514 kts | 33° |
| 2026-05-05 11:16 | 35.27981 | -3.75320 | 38011 ft | 513 kts | 33° |
| 2026-05-05 11:17 | 35.33677 | -3.70041 | 38002 ft | 513 kts | 33° |
| 2026-05-05 11:17 | 35.39329 | -3.64794 | 37998 ft | 514 kts | 33° |
| 2026-05-05 11:18 | 35.45018 | -3.59501 | 37990 ft | 514 kts | 33° |
| 2026-05-05 11:18 | 35.50716 | -3.54190 | 37984 ft | 514 kts | 33° |
| 2026-05-05 11:19 | 35.56409 | -3.48874 | 37985 ft | 514 kts | 33° |
| 2026-05-05 11:19 | 35.62096 | -3.43553 | 37984 ft | 514 kts | 33° |
| 2026-05-05 11:20 | 35.67775 | -3.38231 | 37979 ft | 514 kts | 33° |
| 2026-05-05 11:20 | 35.73440 | -3.32911 | 37981 ft | 513 kts | 34° |
| 2026-05-05 11:21 | 35.79111 | -3.27576 | 37976 ft | 514 kts | 34° |
| 2026-05-05 11:21 | 35.84746 | -3.22248 | 37980 ft | 515 kts | 34° |
| 2026-05-05 11:22 | 35.90402 | -3.16806 | 37974 ft | 515 kts | 35° |
| 2026-05-05 11:22 | 35.96035 | -3.11376 | 37974 ft | 515 kts | 34° |
| 2026-05-05 11:23 | 36.01688 | -3.05918 | 37974 ft | 515 kts | 35° |
| 2026-05-05 11:23 | 36.07317 | -3.00473 | 37963 ft | 515 kts | 35° |
| 2026-05-05 11:24 | 36.12940 | -2.95024 | 37953 ft | 516 kts | 34° |
| 2026-05-05 11:24 | 36.18567 | -2.89559 | 37973 ft | 516 kts | 35° |
| 2026-05-05 11:25 | 36.24199 | -2.84145 | 37961 ft | 516 kts | 34° |
| 2026-05-05 11:25 | 36.29897 | -2.78704 | 37955 ft | 516 kts | 34° |
| 2026-05-05 11:26 | 36.35542 | -2.73303 | 37948 ft | 516 kts | 34° |
| 2026-05-05 11:26 | 36.41212 | -2.67867 | 37957 ft | 515 kts | 34° |
| 2026-05-05 11:27 | 36.46900 | -2.62402 | 37949 ft | 516 kts | 34° |
| 2026-05-05 11:27 | 36.52510 | -2.56833 | 37939 ft | 516 kts | 35° |
| 2026-05-05 11:28 | 36.58081 | -2.51272 | 37948 ft | 516 kts | 35° |
| 2026-05-05 11:28 | 36.63691 | -2.45661 | 37957 ft | 517 kts | 35° |
| 2026-05-05 11:29 | 36.69279 | -2.40062 | 37956 ft | 518 kts | 35° |
| 2026-05-05 11:29 | 36.74886 | -2.34434 | 37959 ft | 518 kts | 36° |
| 2026-05-05 11:30 | 36.80501 | -2.28786 | 37961 ft | 518 kts | 36° |
| 2026-05-05 11:30 | 36.86433 | -2.23866 | 37968 ft | 512 kts | 24° |
| 2026-05-05 11:31 | 36.92756 | -2.19685 | 37972 ft | 513 kts | 24° |
| 2026-05-05 11:31 | 36.99022 | -2.15525 | 37976 ft | 513 kts | 24° |
| 2026-05-05 11:32 | 37.05344 | -2.11320 | 37972 ft | 513 kts | 24° |
| 2026-05-05 11:32 | 37.11665 | -2.07108 | 37964 ft | 514 kts | 24° |
| 2026-05-05 11:33 | 37.17958 | -2.02906 | 37956 ft | 515 kts | 24° |
| 2026-05-05 11:33 | 37.24285 | -1.98674 | 37948 ft | 515 kts | 24° |
| 2026-05-05 11:34 | 37.30645 | -1.94581 | 37946 ft | 515 kts | 22° |
| 2026-05-05 11:34 | 37.37022 | -1.90498 | 37945 ft | 515 kts | 22° |
| 2026-05-05 11:35 | 37.43375 | -1.86420 | 37946 ft | 515 kts | 22° |
| 2026-05-05 11:35 | 37.49776 | -1.82304 | 37952 ft | 516 kts | 22° |
| 2026-05-05 11:36 | 37.56170 | -1.78183 | 37951 ft | 516 kts | 22° |
| 2026-05-05 11:36 | 37.62528 | -1.74077 | 37949 ft | 516 kts | 22° |
| 2026-05-05 11:37 | 37.68912 | -1.69946 | 37950 ft | 517 kts | 22° |
| 2026-05-05 11:37 | 37.75329 | -1.65786 | 37948 ft | 518 kts | 22° |
| 2026-05-05 11:38 | 37.81753 | -1.61613 | 37948 ft | 518 kts | 22° |
| 2026-05-05 11:38 | 37.88163 | -1.57441 | 37949 ft | 519 kts | 22° |
| 2026-05-05 11:39 | 37.94568 | -1.53223 | 37960 ft | 520 kts | 23° |
| 2026-05-05 11:39 | 38.00980 | -1.48954 | 37948 ft | 522 kts | 23° |
| 2026-05-05 11:40 | 38.07381 | -1.44684 | 37946 ft | 521 kts | 22° |
| 2026-05-05 11:40 | 38.13802 | -1.40392 | 37954 ft | 521 kts | 23° |
| 2026-05-05 11:41 | 38.20180 | -1.36121 | 37951 ft | 521 kts | 23° |
| 2026-05-05 11:41 | 38.26585 | -1.31824 | 37963 ft | 521 kts | 24° |
| 2026-05-05 11:42 | 38.33024 | -1.27495 | 37953 ft | 523 kts | 23° |
| 2026-05-05 11:42 | 38.39410 | -1.23194 | 37962 ft | 524 kts | 23° |
| 2026-05-05 11:43 | 38.45863 | -1.18838 | 37977 ft | 525 kts | 24° |
| 2026-05-05 11:43 | 38.52296 | -1.14488 | 37960 ft | 525 kts | 23° |
| 2026-05-05 11:44 | 38.58754 | -1.10111 | 37992 ft | 525 kts | 23° |
| 2026-05-05 11:44 | 38.65166 | -1.05757 | 37993 ft | 526 kts | 23° |
| 2026-05-05 11:45 | 38.71606 | -1.01375 | 37969 ft | 525 kts | 23° |
| 2026-05-05 11:45 | 38.78066 | -0.96971 | 37979 ft | 526 kts | 23° |
| 2026-05-05 11:46 | 38.84515 | -0.92564 | 37978 ft | 526 kts | 23° |
| 2026-05-05 11:46 | 38.90977 | -0.88140 | 37984 ft | 526 kts | 23° |
| 2026-05-05 11:47 | 38.97454 | -0.83697 | 37962 ft | 527 kts | 23° |
| 2026-05-05 11:47 | 39.03901 | -0.79264 | 37961 ft | 527 kts | 23° |
| 2026-05-05 11:48 | 39.12902 | -0.70838 | 37957 ft | 536 kts | 36° |
| 2026-05-05 11:48 | 39.18644 | -0.64718 | 37961 ft | 537 kts | 36° |
| 2026-05-05 11:49 | 39.24386 | -0.58585 | 37948 ft | 538 kts | 36° |
| 2026-05-05 11:49 | 39.30182 | -0.52541 | 37938 ft | 536 kts | 33° |
| 2026-05-05 11:50 | 39.36169 | -0.46740 | 37941 ft | 537 kts | 33° |
| 2026-05-05 11:50 | 39.42120 | -0.40957 | 37933 ft | 537 kts | 33° |
| 2026-05-05 11:51 | 39.48084 | -0.35147 | 37913 ft | 538 kts | 33° |
| 2026-05-05 11:51 | 39.54072 | -0.29298 | 37915 ft | 538 kts | 34° |
| 2026-05-05 11:52 | 39.60020 | -0.23477 | 37920 ft | 538 kts | 33° |
| 2026-05-05 11:52 | 39.65974 | -0.17635 | 37910 ft | 538 kts | 33° |
| 2026-05-05 11:53 | 39.71939 | -0.11768 | 37916 ft | 538 kts | 33° |
| 2026-05-05 11:53 | 39.77872 | -0.05921 | 37898 ft | 538 kts | 33° |
| 2026-05-05 11:54 | 39.83739 | 0.00125 | 37911 ft | 542 kts | 40° |
| 2026-05-05 11:54 | 39.88956 | 0.07238 | 37906 ft | 543 kts | 45° |
| 2026-05-05 11:55 | 39.94114 | 0.14410 | 37904 ft | 544 kts | 44° |
| 2026-05-05 11:55 | 39.99281 | 0.21613 | 37916 ft | 545 kts | 44° |
| 2026-05-05 11:56 | 40.04433 | 0.28806 | 37897 ft | 546 kts | 44° |
| 2026-05-05 11:56 | 40.09592 | 0.36023 | 37907 ft | 545 kts | 44° |
| 2026-05-05 11:57 | 40.14755 | 0.43262 | 37904 ft | 545 kts | 44° |
| 2026-05-05 11:57 | 40.19900 | 0.50494 | 37905 ft | 544 kts | 44° |
| 2026-05-05 11:58 | 40.25019 | 0.57706 | 37904 ft | 544 kts | 44° |
| 2026-05-05 11:58 | 40.30162 | 0.64971 | 37896 ft | 544 kts | 44° |
| 2026-05-05 11:59 | 40.35288 | 0.72232 | 37913 ft | 543 kts | 45° |
| 2026-05-05 11:59 | 40.40393 | 0.79479 | 37913 ft | 543 kts | 45° |
| 2026-05-05 12:00 | 40.45503 | 0.86752 | 37901 ft | 544 kts | 45° |
| 2026-05-05 12:00 | 40.50624 | 0.94056 | 37902 ft | 545 kts | 45° |
| 2026-05-05 12:01 | 40.55737 | 1.01370 | 37926 ft | 545 kts | 45° |
| 2026-05-05 12:01 | 40.60853 | 1.08713 | 37909 ft | 545 kts | 45° |
| 2026-05-05 12:02 | 40.65991 | 1.16108 | 37912 ft | 544 kts | 45° |
| 2026-05-05 12:02 | 40.71081 | 1.23450 | 37908 ft | 544 kts | 45° |
| 2026-05-05 12:03 | 40.76201 | 1.30844 | 37915 ft | 545 kts | 45° |
| 2026-05-05 12:03 | 40.81307 | 1.38234 | 37911 ft | 545 kts | 45° |
| 2026-05-05 12:04 | 40.86373 | 1.45586 | 37934 ft | 546 kts | 45° |
| 2026-05-05 12:04 | 40.91454 | 1.52982 | 37950 ft | 545 kts | 45° |
| 2026-05-05 12:05 | 40.96547 | 1.60415 | 37921 ft | 546 kts | 45° |
| 2026-05-05 12:05 | 41.01627 | 1.67847 | 37919 ft | 545 kts | 46° |
| 2026-05-05 12:06 | 41.06715 | 1.75310 | 37917 ft | 545 kts | 46° |
| 2026-05-05 12:06 | 41.11774 | 1.82745 | 37916 ft | 546 kts | 46° |
| 2026-05-05 12:07 | 41.16829 | 1.90193 | 37902 ft | 545 kts | 46° |
| 2026-05-05 12:07 | 41.21891 | 1.97671 | 37917 ft | 544 kts | 46° |
| 2026-05-05 12:08 | 41.26947 | 2.05159 | 37913 ft | 543 kts | 47° |
| 2026-05-05 12:08 | 41.31413 | 2.13224 | 37927 ft | 544 kts | 60° |
| 2026-05-05 12:09 | 41.34716 | 2.22250 | 37910 ft | 544 kts | 65° |
| 2026-05-05 12:09 | 41.37872 | 2.31339 | 37926 ft | 544 kts | 65° |
| 2026-05-05 12:10 | 41.41039 | 2.40489 | 37922 ft | 543 kts | 65° |
| 2026-05-05 12:10 | 41.44163 | 2.49549 | 37892 ft | 544 kts | 65° |
| 2026-05-05 12:11 | 41.47310 | 2.58704 | 37901 ft | 544 kts | 65° |
| 2026-05-05 12:11 | 41.50435 | 2.67825 | 37906 ft | 543 kts | 66° |
| 2026-05-05 12:12 | 41.53553 | 2.76959 | 37899 ft | 542 kts | 66° |
| 2026-05-05 12:12 | 41.56675 | 2.86134 | 37914 ft | 542 kts | 67° |
| 2026-05-05 12:13 | 41.59772 | 2.95265 | 37914 ft | 541 kts | 67° |
| 2026-05-05 12:13 | 41.62859 | 3.04396 | 37921 ft | 541 kts | 67° |
| 2026-05-05 12:14 | 41.65921 | 3.13485 | 37912 ft | 540 kts | 66° |
| 2026-05-05 12:14 | 41.68999 | 3.22652 | 37909 ft | 539 kts | 66° |
| 2026-05-05 12:15 | 41.72047 | 3.31763 | 37920 ft | 539 kts | 66° |
| 2026-05-05 12:15 | 41.75093 | 3.40893 | 37912 ft | 539 kts | 66° |
| 2026-05-05 12:16 | 41.78139 | 3.50054 | 37921 ft | 539 kts | 66° |
| 2026-05-05 12:16 | 41.81166 | 3.59189 | 37903 ft | 539 kts | 66° |
| 2026-05-05 12:17 | 41.84187 | 3.68338 | 37927 ft | 539 kts | 68° |
| 2026-05-05 12:17 | 41.87201 | 3.77494 | 37939 ft | 538 kts | 68° |
| 2026-05-05 12:18 | 41.90209 | 3.86664 | 37960 ft | 539 kts | 68° |
| 2026-05-05 12:18 | 41.93228 | 3.95898 | 37963 ft | 539 kts | 67° |
| 2026-05-05 12:19 | 41.96228 | 4.05108 | 37960 ft | 539 kts | 67° |
| 2026-05-05 12:19 | 41.99215 | 4.14312 | 37953 ft | 539 kts | 67° |
| 2026-05-05 12:20 | 42.02202 | 4.23544 | 37946 ft | 539 kts | 67° |
| 2026-05-05 12:20 | 42.05174 | 4.32712 | 37949 ft | 539 kts | 66° |
| 2026-05-05 12:21 | 42.08970 | 4.41340 | 37945 ft | 539 kts | 52° |
| 2026-05-05 12:21 | 42.14026 | 4.48769 | 37955 ft | 536 kts | 40° |
| 2026-05-05 12:22 | 42.19566 | 4.55435 | 37949 ft | 536 kts | 39° |
| 2026-05-05 12:22 | 42.25086 | 4.62091 | 37951 ft | 537 kts | 39° |
| 2026-05-05 12:23 | 42.30646 | 4.68815 | 37959 ft | 536 kts | 40° |
| 2026-05-05 12:23 | 42.36182 | 4.75527 | 37956 ft | 536 kts | 40° |
| 2026-05-05 12:24 | 42.41715 | 4.82252 | 37957 ft | 536 kts | 40° |
| 2026-05-05 12:24 | 42.47236 | 4.88980 | 37953 ft | 536 kts | 40° |
| 2026-05-05 12:25 | 42.52745 | 4.95753 | 37948 ft | 536 kts | 42° |
| 2026-05-05 12:25 | 42.57513 | 5.03480 | 37956 ft | 537 kts | 56° |
| 2026-05-05 12:26 | 42.61283 | 5.12214 | 37959 ft | 537 kts | 60° |
| 2026-05-05 12:26 | 42.64945 | 5.20932 | 37945 ft | 536 kts | 60° |
| 2026-05-05 12:27 | 42.68630 | 5.29733 | 37942 ft | 535 kts | 60° |
| 2026-05-05 12:27 | 42.72273 | 5.38462 | 37933 ft | 535 kts | 60° |
| 2026-05-05 12:28 | 42.75924 | 5.47236 | 37939 ft | 535 kts | 60° |
| 2026-05-05 12:28 | 42.79578 | 5.56043 | 37935 ft | 534 kts | 60° |
| 2026-05-05 12:29 | 42.83201 | 5.64802 | 37935 ft | 533 kts | 60° |
| 2026-05-05 12:29 | 42.86813 | 5.73560 | 37931 ft | 532 kts | 61° |
| 2026-05-05 12:30 | 42.90429 | 5.82356 | 37937 ft | 532 kts | 61° |
| 2026-05-05 12:30 | 42.94029 | 5.91141 | 37927 ft | 532 kts | 61° |
| 2026-05-05 12:31 | 42.97606 | 5.99894 | 37925 ft | 532 kts | 61° |
| 2026-05-05 12:31 | 43.01198 | 6.08712 | 37936 ft | 532 kts | 61° |
| 2026-05-05 12:32 | 43.04786 | 6.17546 | 37942 ft | 532 kts | 61° |
| 2026-05-05 12:32 | 43.08355 | 6.26360 | 37935 ft | 532 kts | 61° |
| 2026-05-05 12:33 | 43.11922 | 6.35198 | 37937 ft | 532 kts | 61° |
| 2026-05-05 12:33 | 43.15480 | 6.44038 | 37936 ft | 531 kts | 61° |
| 2026-05-05 12:34 | 43.18559 | 6.53179 | 37923 ft | 530 kts | 72° |
| 2026-05-05 12:34 | 43.20227 | 6.62944 | 37920 ft | 525 kts | 85° |
| 2026-05-05 12:35 | 43.20408 | 6.72872 | 37928 ft | 518 kts | 98° |
| 2026-05-05 12:35 | 43.19431 | 6.82543 | 37929 ft | 514 kts | 103° |
| 2026-05-05 12:36 | 43.18332 | 6.92173 | 37938 ft | 515 kts | 103° |
| 2026-05-05 12:36 | 43.17218 | 7.01863 | 37933 ft | 515 kts | 103° |
| 2026-05-05 12:37 | 43.16105 | 7.11469 | 37931 ft | 515 kts | 103° |
| 2026-05-05 12:37 | 43.14979 | 7.21123 | 37941 ft | 515 kts | 103° |
| 2026-05-05 12:38 | 43.13845 | 7.30766 | 37941 ft | 515 kts | 103° |
| 2026-05-05 12:38 | 43.12697 | 7.40464 | 37948 ft | 515 kts | 103° |
| 2026-05-05 12:39 | 43.11544 | 7.50132 | 37946 ft | 515 kts | 103° |
| 2026-05-05 12:39 | 43.10381 | 7.59809 | 37949 ft | 516 kts | 103° |
| 2026-05-05 12:40 | 43.09208 | 7.69443 | 37943 ft | 516 kts | 104° |
| 2026-05-05 12:40 | 43.08029 | 7.79049 | 37945 ft | 516 kts | 104° |
| 2026-05-05 12:41 | 43.06840 | 7.88745 | 37947 ft | 517 kts | 104° |
| 2026-05-05 12:41 | 43.05647 | 7.98406 | 37946 ft | 517 kts | 104° |
| 2026-05-05 12:42 | 43.04439 | 8.08125 | 37944 ft | 518 kts | 103° |
| 2026-05-05 12:42 | 43.03226 | 8.17806 | 37945 ft | 518 kts | 103° |
| 2026-05-05 12:43 | 43.02007 | 8.27496 | 37950 ft | 519 kts | 103° |
| 2026-05-05 12:43 | 43.01225 | 8.37321 | 37950 ft | 520 kts | 101° |
| 2026-05-05 12:44 | 42.99934 | 8.46959 | 37951 ft | 518 kts | 104° |
| 2026-05-05 12:44 | 42.98564 | 8.56553 | 37951 ft | 519 kts | 105° |
| 2026-05-05 12:45 | 42.97180 | 8.66189 | 37949 ft | 518 kts | 105° |
| 2026-05-05 12:45 | 42.95786 | 8.75848 | 37951 ft | 518 kts | 105° |
| 2026-05-05 12:46 | 42.94477 | 8.85441 | 37950 ft | 518 kts | 104° |
| 2026-05-05 12:46 | 42.93204 | 8.95152 | 37951 ft | 518 kts | 104° |
| 2026-05-05 12:47 | 42.91910 | 9.04803 | 37952 ft | 518 kts | 104° |
| 2026-05-05 12:47 | 42.91266 | 9.09591 | 37640 ft | 512 kts | 104° |
| 2026-05-05 12:47 | 42.90628 | 9.14325 | 37019 ft | 505 kts | 104° |
| 2026-05-05 12:48 | 42.89993 | 9.19014 | 36421 ft | 498 kts | 104° |
| 2026-05-05 12:48 | 42.89368 | 9.23622 | 35886 ft | 495 kts | 104° |
| 2026-05-05 12:48 | 42.88747 | 9.28199 | 35216 ft | 495 kts | 104° |
| 2026-05-05 12:48 | 42.88122 | 9.32794 | 34571 ft | 494 kts | 104° |
| 2026-05-05 12:49 | 42.87493 | 9.37406 | 33857 ft | 493 kts | 104° |
| 2026-05-05 12:49 | 42.86872 | 9.41952 | 33257 ft | 488 kts | 104° |
| 2026-05-05 12:49 | 42.86253 | 9.46465 | 32603 ft | 485 kts | 104° |
| 2026-05-05 12:49 | 42.85643 | 9.50895 | 31979 ft | 482 kts | 104° |
| 2026-05-05 12:50 | 42.85032 | 9.55326 | 31354 ft | 477 kts | 104° |
| 2026-05-05 12:50 | 42.84413 | 9.59789 | 30716 ft | 474 kts | 104° |
| 2026-05-05 12:50 | 42.83802 | 9.64181 | 30089 ft | 470 kts | 104° |
| 2026-05-05 12:50 | 42.83272 | 9.68505 | 29465 ft | 468 kts | 98° |
| 2026-05-05 12:51 | 42.83306 | 9.72920 | 28813 ft | 469 kts | 85° |
| 2026-05-05 12:51 | 42.84064 | 9.77228 | 28159 ft | 466 kts | 70° |
| 2026-05-05 12:51 | 42.85463 | 9.81112 | 27466 ft | 463 kts | 57° |
| 2026-05-05 12:51 | 42.87271 | 9.84688 | 26853 ft | 458 kts | 53° |